<?xml version="1.0" encoding="UTF-8" standalone="no" ?>
<gpx xmlns="http://www.topografix.com/GPX/1/1" xmlns:xsi="http://www.w3.org/2001/XMLSchema-instance" xsi:schemaLocation="http://www.topografix.com/GPX/1/1 http://www.topografix.com/GPX/1/1/gpx.xsd" version="1.1" creator="VisuGPX - https://www.visugpx.com">
  <metadata>
    <name>11111262-TALMONT -Le Brandais rev 1</name>
    <desc><![CDATA[Rando dans le bocage talmondais avec chemins varies.
]]></desc>
  </metadata>
  <trk>
    <name><![CDATA[11111262-TALMONT -Le Brandais rev 1]]></name>
    <trkseg>
      <trkpt lat="46.46888" lon="-1.61278">
        <ele>7</ele>
        <time>2020-03-10T21:22:41Z</time>
      </trkpt>
      <trkpt lat="46.46892" lon="-1.61285">
        <ele>7</ele>
        <time>2020-03-10T21:22:49Z</time>
      </trkpt>
      <trkpt lat="46.46893" lon="-1.61297">
        <ele>6</ele>
        <time>2020-03-10T21:23:00Z</time>
      </trkpt>
      <trkpt lat="46.46883" lon="-1.61311">
        <ele>6</ele>
        <time>2020-03-10T21:23:19Z</time>
      </trkpt>
      <trkpt lat="46.46872" lon="-1.6135">
        <ele>6</ele>
        <time>2020-03-10T21:23:58Z</time>
      </trkpt>
      <trkpt lat="46.46866" lon="-1.61356">
        <ele>6</ele>
        <time>2020-03-10T21:24:07Z</time>
      </trkpt>
      <trkpt lat="46.46842" lon="-1.61372">
        <ele>7</ele>
        <time>2020-03-10T21:24:43Z</time>
      </trkpt>
      <trkpt lat="46.46825" lon="-1.61379">
        <ele>7</ele>
        <time>2020-03-10T21:25:06Z</time>
      </trkpt>
      <trkpt lat="46.4681" lon="-1.6138">
        <ele>6</ele>
        <time>2020-03-10T21:25:26Z</time>
      </trkpt>
      <trkpt lat="46.468" lon="-1.61375">
        <ele>6</ele>
        <time>2020-03-10T21:25:40Z</time>
      </trkpt>
      <trkpt lat="46.46792" lon="-1.61374">
        <ele>6</ele>
        <time>2020-03-10T21:25:51Z</time>
      </trkpt>
      <trkpt lat="46.46772" lon="-1.6139">
        <ele>5</ele>
        <time>2020-03-10T21:26:22Z</time>
      </trkpt>
      <trkpt lat="46.46765" lon="-1.61417">
        <ele>6</ele>
        <time>2020-03-10T21:26:48Z</time>
      </trkpt>
      <trkpt lat="46.46756" lon="-1.61476">
        <ele>6</ele>
        <time>2020-03-10T21:27:44Z</time>
      </trkpt>
      <trkpt lat="46.46751" lon="-1.61492">
        <ele>5</ele>
        <time>2020-03-10T21:28:00Z</time>
      </trkpt>
      <trkpt lat="46.4674" lon="-1.61514">
        <ele>5</ele>
        <time>2020-03-10T21:28:25Z</time>
      </trkpt>
      <trkpt lat="46.46722" lon="-1.61528">
        <ele>5</ele>
        <time>2020-03-10T21:28:52Z</time>
      </trkpt>
      <trkpt lat="46.46716" lon="-1.61537">
        <ele>5</ele>
        <time>2020-03-10T21:29:04Z</time>
      </trkpt>
      <trkpt lat="46.467" lon="-1.6154">
        <ele>4</ele>
        <time>2020-03-10T21:29:25Z</time>
      </trkpt>
      <trkpt lat="46.46682" lon="-1.61532">
        <ele>4</ele>
        <time>2020-03-10T21:29:50Z</time>
      </trkpt>
      <trkpt lat="46.46671" lon="-1.6152">
        <ele>3</ele>
        <time>2020-03-10T21:30:09Z</time>
      </trkpt>
      <trkpt lat="46.46653" lon="-1.61486">
        <ele>4</ele>
        <time>2020-03-10T21:30:48Z</time>
      </trkpt>
      <trkpt lat="46.46644" lon="-1.6146">
        <ele>5</ele>
        <time>2020-03-10T21:31:15Z</time>
      </trkpt>
      <trkpt lat="46.4664" lon="-1.61428">
        <ele>6</ele>
        <time>2020-03-10T21:31:45Z</time>
      </trkpt>
      <trkpt lat="46.46642" lon="-1.61391">
        <ele>6</ele>
        <time>2020-03-10T21:32:19Z</time>
      </trkpt>
      <trkpt lat="46.46647" lon="-1.6138">
        <ele>7</ele>
        <time>2020-03-10T21:32:31Z</time>
      </trkpt>
      <trkpt lat="46.46648" lon="-1.61357">
        <ele>8</ele>
        <time>2020-03-10T21:32:52Z</time>
      </trkpt>
      <trkpt lat="46.46642" lon="-1.61324">
        <ele>9</ele>
        <time>2020-03-10T21:33:23Z</time>
      </trkpt>
      <trkpt lat="46.46637" lon="-1.61317">
        <ele>9</ele>
        <time>2020-03-10T21:33:33Z</time>
      </trkpt>
      <trkpt lat="46.4663" lon="-1.61291">
        <ele>10</ele>
        <time>2020-03-10T21:33:58Z</time>
      </trkpt>
      <trkpt lat="46.46628" lon="-1.61241">
        <ele>10</ele>
        <time>2020-03-10T21:34:44Z</time>
      </trkpt>
      <trkpt lat="46.46641" lon="-1.61206">
        <ele>7</ele>
        <time>2020-03-10T21:35:21Z</time>
      </trkpt>
      <trkpt lat="46.46656" lon="-1.61178">
        <ele>4</ele>
        <time>2020-03-10T21:35:54Z</time>
      </trkpt>
      <trkpt lat="46.46658" lon="-1.61167">
        <ele>3</ele>
        <time>2020-03-10T21:36:04Z</time>
      </trkpt>
      <trkpt lat="46.46658" lon="-1.6115">
        <ele>3</ele>
        <time>2020-03-10T21:36:20Z</time>
      </trkpt>
      <trkpt lat="46.46644" lon="-1.61107">
        <ele>3</ele>
        <time>2020-03-10T21:37:03Z</time>
      </trkpt>
      <trkpt lat="46.46645" lon="-1.61095">
        <ele>3</ele>
        <time>2020-03-10T21:37:14Z</time>
      </trkpt>
      <trkpt lat="46.46649" lon="-1.61083">
        <ele>2</ele>
        <time>2020-03-10T21:37:27Z</time>
      </trkpt>
      <trkpt lat="46.46663" lon="-1.61069">
        <ele>1</ele>
        <time>2020-03-10T21:37:49Z</time>
      </trkpt>
      <trkpt lat="46.46704" lon="-1.61056">
        <ele>3</ele>
        <time>2020-03-10T21:38:45Z</time>
      </trkpt>
      <trkpt lat="46.46735" lon="-1.61056">
        <ele>5</ele>
        <time>2020-03-10T21:39:27Z</time>
      </trkpt>
      <trkpt lat="46.46741" lon="-1.61055">
        <ele>5</ele>
        <time>2020-03-10T21:39:35Z</time>
      </trkpt>
      <trkpt lat="46.46746" lon="-1.61051">
        <ele>5</ele>
        <time>2020-03-10T21:39:42Z</time>
      </trkpt>
      <trkpt lat="46.46748" lon="-1.61046">
        <ele>5</ele>
        <time>2020-03-10T21:39:48Z</time>
      </trkpt>
      <trkpt lat="46.46747" lon="-1.6099">
        <ele>4</ele>
        <time>2020-03-10T21:40:39Z</time>
      </trkpt>
      <trkpt lat="46.46758" lon="-1.60954">
        <ele>3</ele>
        <time>2020-03-10T21:41:15Z</time>
      </trkpt>
      <trkpt lat="46.46764" lon="-1.60912">
        <ele>2</ele>
        <time>2020-03-10T21:41:55Z</time>
      </trkpt>
      <trkpt lat="46.4676" lon="-1.60895">
        <ele>2</ele>
        <time>2020-03-10T21:42:11Z</time>
      </trkpt>
      <trkpt lat="46.46761" lon="-1.60891">
        <ele>2</ele>
        <time>2020-03-10T21:42:15Z</time>
      </trkpt>
      <trkpt lat="46.46771" lon="-1.60869">
        <ele>3</ele>
        <time>2020-03-10T21:42:40Z</time>
      </trkpt>
      <trkpt lat="46.46796" lon="-1.60853">
        <ele>3</ele>
        <time>2020-03-10T21:43:16Z</time>
      </trkpt>
      <trkpt lat="46.46817" lon="-1.60826">
        <ele>4</ele>
        <time>2020-03-10T21:43:53Z</time>
      </trkpt>
      <trkpt lat="46.46846" lon="-1.60804">
        <ele>4</ele>
        <time>2020-03-10T21:44:37Z</time>
      </trkpt>
      <trkpt lat="46.46859" lon="-1.6077">
        <ele>4</ele>
        <time>2020-03-10T21:45:13Z</time>
      </trkpt>
      <trkpt lat="46.46868" lon="-1.60703">
        <ele>5</ele>
        <time>2020-03-10T21:46:16Z</time>
      </trkpt>
      <trkpt lat="46.46876" lon="-1.60684">
        <ele>5</ele>
        <time>2020-03-10T21:46:36Z</time>
      </trkpt>
      <trkpt lat="46.46885" lon="-1.60635">
        <ele>6</ele>
        <time>2020-03-10T21:47:23Z</time>
      </trkpt>
      <trkpt lat="46.46896" lon="-1.60612">
        <ele>6</ele>
        <time>2020-03-10T21:47:48Z</time>
      </trkpt>
      <trkpt lat="46.46908" lon="-1.60594">
        <ele>6</ele>
        <time>2020-03-10T21:48:11Z</time>
      </trkpt>
      <trkpt lat="46.46912" lon="-1.6057">
        <ele>6</ele>
        <time>2020-03-10T21:48:34Z</time>
      </trkpt>
      <trkpt lat="46.46908" lon="-1.60559">
        <ele>6</ele>
        <time>2020-03-10T21:48:46Z</time>
      </trkpt>
      <trkpt lat="46.46885" lon="-1.6053">
        <ele>6</ele>
        <time>2020-03-10T21:49:26Z</time>
      </trkpt>
      <trkpt lat="46.46873" lon="-1.60507">
        <ele>6</ele>
        <time>2020-03-10T21:49:53Z</time>
      </trkpt>
      <trkpt lat="46.46856" lon="-1.60502">
        <ele>6</ele>
        <time>2020-03-10T21:50:16Z</time>
      </trkpt>
      <trkpt lat="46.46845" lon="-1.60504">
        <ele>6</ele>
        <time>2020-03-10T21:50:31Z</time>
      </trkpt>
      <trkpt lat="46.46833" lon="-1.60495">
        <ele>6</ele>
        <time>2020-03-10T21:50:49Z</time>
      </trkpt>
      <trkpt lat="46.46833" lon="-1.60491">
        <ele>6</ele>
        <time>2020-03-10T21:50:52Z</time>
      </trkpt>
      <trkpt lat="46.46836" lon="-1.60491">
        <ele>6</ele>
        <time>2020-03-10T21:50:56Z</time>
      </trkpt>
      <trkpt lat="46.46841" lon="-1.60481">
        <ele>6</ele>
        <time>2020-03-10T21:51:08Z</time>
      </trkpt>
      <trkpt lat="46.46842" lon="-1.60474">
        <ele>6</ele>
        <time>2020-03-10T21:51:14Z</time>
      </trkpt>
      <trkpt lat="46.4684" lon="-1.60472">
        <ele>6</ele>
        <time>2020-03-10T21:51:18Z</time>
      </trkpt>
      <trkpt lat="46.46829" lon="-1.60488">
        <ele>6</ele>
        <time>2020-03-10T21:51:38Z</time>
      </trkpt>
      <trkpt lat="46.46824" lon="-1.6049">
        <ele>7</ele>
        <time>2020-03-10T21:51:45Z</time>
      </trkpt>
      <trkpt lat="46.46807" lon="-1.60489">
        <ele>8</ele>
        <time>2020-03-10T21:52:08Z</time>
      </trkpt>
      <trkpt lat="46.46773" lon="-1.60494">
        <ele>11</ele>
        <time>2020-03-10T21:52:54Z</time>
      </trkpt>
      <trkpt lat="46.46758" lon="-1.60492">
        <ele>12</ele>
        <time>2020-03-10T21:53:14Z</time>
      </trkpt>
      <trkpt lat="46.46714" lon="-1.60477">
        <ele>14</ele>
        <time>2020-03-10T21:54:14Z</time>
      </trkpt>
      <trkpt lat="46.46693" lon="-1.60465">
        <ele>15</ele>
        <time>2020-03-10T21:54:44Z</time>
      </trkpt>
      <trkpt lat="46.46664" lon="-1.60457">
        <ele>16</ele>
        <time>2020-03-10T21:55:23Z</time>
      </trkpt>
      <trkpt lat="46.46629" lon="-1.60442">
        <ele>16</ele>
        <time>2020-03-10T21:56:12Z</time>
      </trkpt>
      <trkpt lat="46.46617" lon="-1.60444">
        <ele>16</ele>
        <time>2020-03-10T21:56:28Z</time>
      </trkpt>
      <trkpt lat="46.46582" lon="-1.60439">
        <ele>16</ele>
        <time>2020-03-10T21:57:15Z</time>
      </trkpt>
      <trkpt lat="46.46579" lon="-1.60436">
        <ele>16</ele>
        <time>2020-03-10T21:57:20Z</time>
      </trkpt>
      <trkpt lat="46.46556" lon="-1.60431">
        <ele>16</ele>
        <time>2020-03-10T21:57:51Z</time>
      </trkpt>
      <trkpt lat="46.46533" lon="-1.6042">
        <ele>16</ele>
        <time>2020-03-10T21:58:23Z</time>
      </trkpt>
      <trkpt lat="46.46526" lon="-1.60408">
        <ele>16</ele>
        <time>2020-03-10T21:58:38Z</time>
      </trkpt>
      <trkpt lat="46.46524" lon="-1.60389">
        <ele>16</ele>
        <time>2020-03-10T21:58:56Z</time>
      </trkpt>
      <trkpt lat="46.46526" lon="-1.6035">
        <ele>15</ele>
        <time>2020-03-10T21:59:31Z</time>
      </trkpt>
      <trkpt lat="46.46531" lon="-1.60324">
        <ele>15</ele>
        <time>2020-03-10T21:59:56Z</time>
      </trkpt>
      <trkpt lat="46.46532" lon="-1.60287">
        <ele>14</ele>
        <time>2020-03-10T22:00:30Z</time>
      </trkpt>
      <trkpt lat="46.46536" lon="-1.60271">
        <ele>14</ele>
        <time>2020-03-10T22:00:46Z</time>
      </trkpt>
      <trkpt lat="46.46538" lon="-1.60232">
        <ele>13</ele>
        <time>2020-03-10T22:01:22Z</time>
      </trkpt>
      <trkpt lat="46.46545" lon="-1.60179">
        <ele>11</ele>
        <time>2020-03-10T22:02:12Z</time>
      </trkpt>
      <trkpt lat="46.46544" lon="-1.60149">
        <ele>11</ele>
        <time>2020-03-10T22:02:39Z</time>
      </trkpt>
      <trkpt lat="46.46535" lon="-1.60119">
        <ele>10</ele>
        <time>2020-03-10T22:03:09Z</time>
      </trkpt>
      <trkpt lat="46.46519" lon="-1.60104">
        <ele>9</ele>
        <time>2020-03-10T22:03:35Z</time>
      </trkpt>
      <trkpt lat="46.46512" lon="-1.60089">
        <ele>9</ele>
        <time>2020-03-10T22:03:51Z</time>
      </trkpt>
      <trkpt lat="46.46511" lon="-1.60083">
        <ele>9</ele>
        <time>2020-03-10T22:03:57Z</time>
      </trkpt>
      <trkpt lat="46.46517" lon="-1.60058">
        <ele>8</ele>
        <time>2020-03-10T22:04:21Z</time>
      </trkpt>
      <trkpt lat="46.46516" lon="-1.60052">
        <ele>8</ele>
        <time>2020-03-10T22:04:27Z</time>
      </trkpt>
      <trkpt lat="46.46493" lon="-1.59996">
        <ele>6</ele>
        <time>2020-03-10T22:05:27Z</time>
      </trkpt>
      <trkpt lat="46.4649" lon="-1.59994">
        <ele>6</ele>
        <time>2020-03-10T22:05:31Z</time>
      </trkpt>
      <trkpt lat="46.46481" lon="-1.59995">
        <ele>6</ele>
        <time>2020-03-10T22:05:43Z</time>
      </trkpt>
      <trkpt lat="46.46475" lon="-1.60006">
        <ele>6</ele>
        <time>2020-03-10T22:05:56Z</time>
      </trkpt>
      <trkpt lat="46.46474" lon="-1.60014">
        <ele>6</ele>
        <time>2020-03-10T22:06:04Z</time>
      </trkpt>
      <trkpt lat="46.46477" lon="-1.60035">
        <ele>7</ele>
        <time>2020-03-10T22:06:23Z</time>
      </trkpt>
      <trkpt lat="46.46472" lon="-1.60061">
        <ele>7</ele>
        <time>2020-03-10T22:06:48Z</time>
      </trkpt>
      <trkpt lat="46.46464" lon="-1.60075">
        <ele>8</ele>
        <time>2020-03-10T22:07:05Z</time>
      </trkpt>
      <trkpt lat="46.46461" lon="-1.60078">
        <ele>7</ele>
        <time>2020-03-10T22:07:10Z</time>
      </trkpt>
      <trkpt lat="46.46458" lon="-1.60076">
        <ele>7</ele>
        <time>2020-03-10T22:07:14Z</time>
      </trkpt>
      <trkpt lat="46.46452" lon="-1.60091">
        <ele>7</ele>
        <time>2020-03-10T22:07:30Z</time>
      </trkpt>
      <trkpt lat="46.4645" lon="-1.60106">
        <ele>8</ele>
        <time>2020-03-10T22:07:44Z</time>
      </trkpt>
      <trkpt lat="46.46441" lon="-1.60123">
        <ele>8</ele>
        <time>2020-03-10T22:08:04Z</time>
      </trkpt>
      <trkpt lat="46.46397" lon="-1.60154">
        <ele>8</ele>
        <time>2020-03-10T22:09:09Z</time>
      </trkpt>
      <trkpt lat="46.46367" lon="-1.60183">
        <ele>8</ele>
        <time>2020-03-10T22:09:57Z</time>
      </trkpt>
      <trkpt lat="46.46331" lon="-1.60212">
        <ele>8</ele>
        <time>2020-03-10T22:10:52Z</time>
      </trkpt>
      <trkpt lat="46.46324" lon="-1.6021">
        <ele>8</ele>
        <time>2020-03-10T22:11:02Z</time>
      </trkpt>
      <trkpt lat="46.4629" lon="-1.6024">
        <ele>8</ele>
        <time>2020-03-10T22:11:55Z</time>
      </trkpt>
      <trkpt lat="46.4626" lon="-1.60262">
        <ele>7</ele>
        <time>2020-03-10T22:12:40Z</time>
      </trkpt>
      <trkpt lat="46.4625" lon="-1.60265">
        <ele>7</ele>
        <time>2020-03-10T22:12:53Z</time>
      </trkpt>
      <trkpt lat="46.46207" lon="-1.60302">
        <ele>8</ele>
        <time>2020-03-10T22:14:00Z</time>
      </trkpt>
      <trkpt lat="46.46185" lon="-1.60313">
        <ele>8</ele>
        <time>2020-03-10T22:14:31Z</time>
      </trkpt>
      <trkpt lat="46.46162" lon="-1.6032">
        <ele>8</ele>
        <time>2020-03-10T22:15:02Z</time>
      </trkpt>
      <trkpt lat="46.46152" lon="-1.60319">
        <ele>8</ele>
        <time>2020-03-10T22:15:16Z</time>
      </trkpt>
      <trkpt lat="46.46142" lon="-1.60306">
        <ele>7</ele>
        <time>2020-03-10T22:15:34Z</time>
      </trkpt>
      <trkpt lat="46.46137" lon="-1.6028">
        <ele>7</ele>
        <time>2020-03-10T22:15:59Z</time>
      </trkpt>
      <trkpt lat="46.46128" lon="-1.60163">
        <ele>7</ele>
        <time>2020-03-10T22:17:47Z</time>
      </trkpt>
      <trkpt lat="46.46116" lon="-1.60118">
        <ele>7</ele>
        <time>2020-03-10T22:18:31Z</time>
      </trkpt>
      <trkpt lat="46.46074" lon="-1.60015">
        <ele>7</ele>
        <time>2020-03-10T22:20:21Z</time>
      </trkpt>
      <trkpt lat="46.46066" lon="-1.59987">
        <ele>7</ele>
        <time>2020-03-10T22:20:49Z</time>
      </trkpt>
      <trkpt lat="46.46039" lon="-1.59917">
        <ele>7</ele>
        <time>2020-03-10T22:22:03Z</time>
      </trkpt>
      <trkpt lat="46.46025" lon="-1.59894">
        <ele>7</ele>
        <time>2020-03-10T22:22:31Z</time>
      </trkpt>
      <trkpt lat="46.46017" lon="-1.59873">
        <ele>7</ele>
        <time>2020-03-10T22:22:53Z</time>
      </trkpt>
      <trkpt lat="46.45996" lon="-1.59831">
        <ele>6</ele>
        <time>2020-03-10T22:23:41Z</time>
      </trkpt>
      <trkpt lat="46.45981" lon="-1.59787">
        <ele>6</ele>
        <time>2020-03-10T22:24:26Z</time>
      </trkpt>
      <trkpt lat="46.45967" lon="-1.59731">
        <ele>5</ele>
        <time>2020-03-10T22:25:21Z</time>
      </trkpt>
      <trkpt lat="46.45955" lon="-1.59648">
        <ele>6</ele>
        <time>2020-03-10T22:26:39Z</time>
      </trkpt>
      <trkpt lat="46.4594" lon="-1.59588">
        <ele>6</ele>
        <time>2020-03-10T22:27:37Z</time>
      </trkpt>
      <trkpt lat="46.45933" lon="-1.59542">
        <ele>7</ele>
        <time>2020-03-10T22:28:21Z</time>
      </trkpt>
      <trkpt lat="46.45915" lon="-1.5946">
        <ele>8</ele>
        <time>2020-03-10T22:29:40Z</time>
      </trkpt>
      <trkpt lat="46.45912" lon="-1.59454">
        <ele>8</ele>
        <time>2020-03-10T22:29:47Z</time>
      </trkpt>
      <trkpt lat="46.45913" lon="-1.59449">
        <ele>8</ele>
        <time>2020-03-10T22:29:51Z</time>
      </trkpt>
      <trkpt lat="46.45901" lon="-1.59398">
        <ele>9</ele>
        <time>2020-03-10T22:30:41Z</time>
      </trkpt>
      <trkpt lat="46.45897" lon="-1.5937">
        <ele>9</ele>
        <time>2020-03-10T22:31:07Z</time>
      </trkpt>
      <trkpt lat="46.4588" lon="-1.59303">
        <ele>10</ele>
        <time>2020-03-10T22:32:13Z</time>
      </trkpt>
      <trkpt lat="46.45874" lon="-1.59251">
        <ele>10</ele>
        <time>2020-03-10T22:33:01Z</time>
      </trkpt>
      <trkpt lat="46.45875" lon="-1.59246">
        <ele>10</ele>
        <time>2020-03-10T22:33:06Z</time>
      </trkpt>
      <trkpt lat="46.45887" lon="-1.59242">
        <ele>10</ele>
        <time>2020-03-10T22:33:22Z</time>
      </trkpt>
      <trkpt lat="46.45898" lon="-1.59247">
        <ele>9</ele>
        <time>2020-03-10T22:33:38Z</time>
      </trkpt>
      <trkpt lat="46.459" lon="-1.59246">
        <ele>9</ele>
        <time>2020-03-10T22:33:41Z</time>
      </trkpt>
      <trkpt lat="46.45953" lon="-1.59272">
        <ele>8</ele>
        <time>2020-03-10T22:34:55Z</time>
      </trkpt>
      <trkpt lat="46.46002" lon="-1.59302">
        <ele>6</ele>
        <time>2020-03-10T22:36:06Z</time>
      </trkpt>
      <trkpt lat="46.46014" lon="-1.59312">
        <ele>6</ele>
        <time>2020-03-10T22:36:25Z</time>
      </trkpt>
      <trkpt lat="46.46101" lon="-1.5941">
        <ele>6</ele>
        <time>2020-03-10T22:38:52Z</time>
      </trkpt>
      <trkpt lat="46.4611" lon="-1.59419">
        <ele>6</ele>
        <time>2020-03-10T22:39:06Z</time>
      </trkpt>
      <trkpt lat="46.4612" lon="-1.59424">
        <ele>6</ele>
        <time>2020-03-10T22:39:20Z</time>
      </trkpt>
      <trkpt lat="46.46124" lon="-1.59433">
        <ele>6</ele>
        <time>2020-03-10T22:39:30Z</time>
      </trkpt>
      <trkpt lat="46.46123" lon="-1.59428">
        <ele>6</ele>
        <time>2020-03-10T22:39:35Z</time>
      </trkpt>
      <trkpt lat="46.46131" lon="-1.59399">
        <ele>6</ele>
        <time>2020-03-10T22:40:04Z</time>
      </trkpt>
      <trkpt lat="46.46129" lon="-1.59394">
        <ele>6</ele>
        <time>2020-03-10T22:40:09Z</time>
      </trkpt>
      <trkpt lat="46.46137" lon="-1.59351">
        <ele>5</ele>
        <time>2020-03-10T22:40:50Z</time>
      </trkpt>
      <trkpt lat="46.46167" lon="-1.59228">
        <ele>6</ele>
        <time>2020-03-10T22:42:50Z</time>
      </trkpt>
      <trkpt lat="46.46172" lon="-1.59197">
        <ele>6</ele>
        <time>2020-03-10T22:43:19Z</time>
      </trkpt>
      <trkpt lat="46.46169" lon="-1.59107">
        <ele>4</ele>
        <time>2020-03-10T22:44:42Z</time>
      </trkpt>
      <trkpt lat="46.46161" lon="-1.59028">
        <ele>4</ele>
        <time>2020-03-10T22:45:55Z</time>
      </trkpt>
      <trkpt lat="46.46158" lon="-1.58826">
        <ele>4</ele>
        <time>2020-03-10T22:49:01Z</time>
      </trkpt>
      <trkpt lat="46.46154" lon="-1.58813">
        <ele>4</ele>
        <time>2020-03-10T22:49:14Z</time>
      </trkpt>
      <trkpt lat="46.46144" lon="-1.58807">
        <ele>4</ele>
        <time>2020-03-10T22:49:29Z</time>
      </trkpt>
      <trkpt lat="46.46133" lon="-1.58789">
        <ele>4</ele>
        <time>2020-03-10T22:49:51Z</time>
      </trkpt>
      <trkpt lat="46.46127" lon="-1.58731">
        <ele>4</ele>
        <time>2020-03-10T22:50:45Z</time>
      </trkpt>
      <trkpt lat="46.46127" lon="-1.58668">
        <ele>4</ele>
        <time>2020-03-10T22:51:43Z</time>
      </trkpt>
      <trkpt lat="46.46124" lon="-1.58648">
        <ele>5</ele>
        <time>2020-03-10T22:52:01Z</time>
      </trkpt>
      <trkpt lat="46.46128" lon="-1.58644">
        <ele>4</ele>
        <time>2020-03-10T22:52:08Z</time>
      </trkpt>
      <trkpt lat="46.46126" lon="-1.58646">
        <ele>4</ele>
        <time>2020-03-10T22:52:11Z</time>
      </trkpt>
      <trkpt lat="46.46119" lon="-1.58562">
        <ele>4</ele>
        <time>2020-03-10T22:53:29Z</time>
      </trkpt>
      <trkpt lat="46.46115" lon="-1.58544">
        <ele>4</ele>
        <time>2020-03-10T22:53:46Z</time>
      </trkpt>
      <trkpt lat="46.46117" lon="-1.5854">
        <ele>4</ele>
        <time>2020-03-10T22:53:51Z</time>
      </trkpt>
      <trkpt lat="46.46114" lon="-1.58522">
        <ele>4</ele>
        <time>2020-03-10T22:54:08Z</time>
      </trkpt>
      <trkpt lat="46.46098" lon="-1.58478">
        <ele>4</ele>
        <time>2020-03-10T22:54:54Z</time>
      </trkpt>
      <trkpt lat="46.46095" lon="-1.58446">
        <ele>3</ele>
        <time>2020-03-10T22:55:23Z</time>
      </trkpt>
      <trkpt lat="46.46073" lon="-1.58332">
        <ele>2</ele>
        <time>2020-03-10T22:57:12Z</time>
      </trkpt>
      <trkpt lat="46.46068" lon="-1.58327">
        <ele>2</ele>
        <time>2020-03-10T22:57:20Z</time>
      </trkpt>
      <trkpt lat="46.4606" lon="-1.58327">
        <ele>3</ele>
        <time>2020-03-10T22:57:31Z</time>
      </trkpt>
      <trkpt lat="46.46026" lon="-1.58332">
        <ele>3</ele>
        <time>2020-03-10T22:58:17Z</time>
      </trkpt>
      <trkpt lat="46.45944" lon="-1.58335">
        <ele>4</ele>
        <time>2020-03-10T23:00:06Z</time>
      </trkpt>
      <trkpt lat="46.45932" lon="-1.58338">
        <ele>4</ele>
        <time>2020-03-10T23:00:22Z</time>
      </trkpt>
      <trkpt lat="46.45903" lon="-1.58336">
        <ele>5</ele>
        <time>2020-03-10T23:01:01Z</time>
      </trkpt>
      <trkpt lat="46.45889" lon="-1.5834">
        <ele>5</ele>
        <time>2020-03-10T23:01:20Z</time>
      </trkpt>
      <trkpt lat="46.45873" lon="-1.58329">
        <ele>6</ele>
        <time>2020-03-10T23:01:44Z</time>
      </trkpt>
      <trkpt lat="46.45865" lon="-1.58317">
        <ele>6</ele>
        <time>2020-03-10T23:01:59Z</time>
      </trkpt>
      <trkpt lat="46.45867" lon="-1.58289">
        <ele>6</ele>
        <time>2020-03-10T23:02:25Z</time>
      </trkpt>
      <trkpt lat="46.45861" lon="-1.58217">
        <ele>5</ele>
        <time>2020-03-10T23:03:32Z</time>
      </trkpt>
      <trkpt lat="46.45863" lon="-1.582">
        <ele>4</ele>
        <time>2020-03-10T23:03:47Z</time>
      </trkpt>
      <trkpt lat="46.45863" lon="-1.58141">
        <ele>4</ele>
        <time>2020-03-10T23:04:42Z</time>
      </trkpt>
      <trkpt lat="46.45865" lon="-1.58136">
        <ele>4</ele>
        <time>2020-03-10T23:04:47Z</time>
      </trkpt>
      <trkpt lat="46.45857" lon="-1.58069">
        <ele>4</ele>
        <time>2020-03-10T23:05:49Z</time>
      </trkpt>
      <trkpt lat="46.45857" lon="-1.58038">
        <ele>4</ele>
        <time>2020-03-10T23:06:18Z</time>
      </trkpt>
      <trkpt lat="46.45862" lon="-1.58023">
        <ele>5</ele>
        <time>2020-03-10T23:06:33Z</time>
      </trkpt>
      <trkpt lat="46.45878" lon="-1.58006">
        <ele>5</ele>
        <time>2020-03-10T23:07:00Z</time>
      </trkpt>
      <trkpt lat="46.45877" lon="-1.58003">
        <ele>5</ele>
        <time>2020-03-10T23:07:03Z</time>
      </trkpt>
      <trkpt lat="46.4588" lon="-1.58">
        <ele>5</ele>
        <time>2020-03-10T23:07:08Z</time>
      </trkpt>
      <trkpt lat="46.45913" lon="-1.57976">
        <ele>5</ele>
        <time>2020-03-10T23:07:57Z</time>
      </trkpt>
      <trkpt lat="46.45959" lon="-1.57956">
        <ele>4</ele>
        <time>2020-03-10T23:09:01Z</time>
      </trkpt>
      <trkpt lat="46.46007" lon="-1.57939">
        <ele>3</ele>
        <time>2020-03-10T23:10:07Z</time>
      </trkpt>
      <trkpt lat="46.46029" lon="-1.57934">
        <ele>3</ele>
        <time>2020-03-10T23:10:37Z</time>
      </trkpt>
      <trkpt lat="46.46098" lon="-1.57934">
        <ele>3</ele>
        <time>2020-03-10T23:12:09Z</time>
      </trkpt>
      <trkpt lat="46.46113" lon="-1.57931">
        <ele>3</ele>
        <time>2020-03-10T23:12:29Z</time>
      </trkpt>
      <trkpt lat="46.46128" lon="-1.57926">
        <ele>3</ele>
        <time>2020-03-10T23:12:49Z</time>
      </trkpt>
      <trkpt lat="46.46144" lon="-1.57915">
        <ele>4</ele>
        <time>2020-03-10T23:13:13Z</time>
      </trkpt>
      <trkpt lat="46.46173" lon="-1.5788">
        <ele>5</ele>
        <time>2020-03-10T23:14:03Z</time>
      </trkpt>
      <trkpt lat="46.46272" lon="-1.57721">
        <ele>9</ele>
        <time>2020-03-10T23:17:20Z</time>
      </trkpt>
      <trkpt lat="46.46282" lon="-1.57711">
        <ele>9</ele>
        <time>2020-03-10T23:17:37Z</time>
      </trkpt>
      <trkpt lat="46.46328" lon="-1.57644">
        <ele>11</ele>
        <time>2020-03-10T23:19:04Z</time>
      </trkpt>
      <trkpt lat="46.46345" lon="-1.57606">
        <ele>11</ele>
        <time>2020-03-10T23:19:45Z</time>
      </trkpt>
      <trkpt lat="46.46383" lon="-1.57554">
        <ele>12</ele>
        <time>2020-03-10T23:20:55Z</time>
      </trkpt>
      <trkpt lat="46.46403" lon="-1.57516">
        <ele>13</ele>
        <time>2020-03-10T23:21:39Z</time>
      </trkpt>
      <trkpt lat="46.46409" lon="-1.57509">
        <ele>13</ele>
        <time>2020-03-10T23:21:49Z</time>
      </trkpt>
      <trkpt lat="46.46438" lon="-1.57484">
        <ele>13</ele>
        <time>2020-03-10T23:22:34Z</time>
      </trkpt>
      <trkpt lat="46.4651" lon="-1.57437">
        <ele>14</ele>
        <time>2020-03-10T23:24:20Z</time>
      </trkpt>
      <trkpt lat="46.46555" lon="-1.57405">
        <ele>14</ele>
        <time>2020-03-10T23:25:26Z</time>
      </trkpt>
      <trkpt lat="46.46573" lon="-1.57389">
        <ele>14</ele>
        <time>2020-03-10T23:25:55Z</time>
      </trkpt>
      <trkpt lat="46.46606" lon="-1.57369">
        <ele>15</ele>
        <time>2020-03-10T23:26:42Z</time>
      </trkpt>
      <trkpt lat="46.46655" lon="-1.57332">
        <ele>15</ele>
        <time>2020-03-10T23:27:56Z</time>
      </trkpt>
      <trkpt lat="46.46726" lon="-1.57287">
        <ele>16</ele>
        <time>2020-03-10T23:29:39Z</time>
      </trkpt>
      <trkpt lat="46.46762" lon="-1.57261">
        <ele>17</ele>
        <time>2020-03-10T23:30:33Z</time>
      </trkpt>
      <trkpt lat="46.46804" lon="-1.57215">
        <ele>18</ele>
        <time>2020-03-10T23:31:43Z</time>
      </trkpt>
      <trkpt lat="46.4682" lon="-1.5719">
        <ele>19</ele>
        <time>2020-03-10T23:32:15Z</time>
      </trkpt>
      <trkpt lat="46.46841" lon="-1.5714">
        <ele>20</ele>
        <time>2020-03-10T23:33:08Z</time>
      </trkpt>
      <trkpt lat="46.46862" lon="-1.57073">
        <ele>21</ele>
        <time>2020-03-10T23:34:16Z</time>
      </trkpt>
      <trkpt lat="46.46873" lon="-1.57066">
        <ele>21</ele>
        <time>2020-03-10T23:34:32Z</time>
      </trkpt>
      <trkpt lat="46.46892" lon="-1.57047">
        <ele>22</ele>
        <time>2020-03-10T23:35:03Z</time>
      </trkpt>
      <trkpt lat="46.46925" lon="-1.57044">
        <ele>23</ele>
        <time>2020-03-10T23:35:47Z</time>
      </trkpt>
      <trkpt lat="46.46933" lon="-1.57049">
        <ele>23</ele>
        <time>2020-03-10T23:35:59Z</time>
      </trkpt>
      <trkpt lat="46.46938" lon="-1.57064">
        <ele>23</ele>
        <time>2020-03-10T23:36:14Z</time>
      </trkpt>
      <trkpt lat="46.46934" lon="-1.57081">
        <ele>23</ele>
        <time>2020-03-10T23:36:30Z</time>
      </trkpt>
      <trkpt lat="46.46934" lon="-1.57105">
        <ele>23</ele>
        <time>2020-03-10T23:36:53Z</time>
      </trkpt>
      <trkpt lat="46.46925" lon="-1.57154">
        <ele>22</ele>
        <time>2020-03-10T23:37:39Z</time>
      </trkpt>
      <trkpt lat="46.46925" lon="-1.57169">
        <ele>22</ele>
        <time>2020-03-10T23:37:53Z</time>
      </trkpt>
      <trkpt lat="46.46928" lon="-1.57174">
        <ele>22</ele>
        <time>2020-03-10T23:37:59Z</time>
      </trkpt>
      <trkpt lat="46.46956" lon="-1.57182">
        <ele>23</ele>
        <time>2020-03-10T23:38:37Z</time>
      </trkpt>
      <trkpt lat="46.47002" lon="-1.57189">
        <ele>24</ele>
        <time>2020-03-10T23:39:39Z</time>
      </trkpt>
      <trkpt lat="46.47043" lon="-1.57202">
        <ele>24</ele>
        <time>2020-03-10T23:40:35Z</time>
      </trkpt>
      <trkpt lat="46.47068" lon="-1.57214">
        <ele>25</ele>
        <time>2020-03-10T23:41:10Z</time>
      </trkpt>
      <trkpt lat="46.47106" lon="-1.57225">
        <ele>25</ele>
        <time>2020-03-10T23:42:02Z</time>
      </trkpt>
      <trkpt lat="46.47129" lon="-1.57228">
        <ele>25</ele>
        <time>2020-03-10T23:42:32Z</time>
      </trkpt>
      <trkpt lat="46.47165" lon="-1.57238">
        <ele>25</ele>
        <time>2020-03-10T23:43:21Z</time>
      </trkpt>
      <trkpt lat="46.47175" lon="-1.57243">
        <ele>25</ele>
        <time>2020-03-10T23:43:36Z</time>
      </trkpt>
      <trkpt lat="46.47165" lon="-1.57293">
        <ele>25</ele>
        <time>2020-03-10T23:44:23Z</time>
      </trkpt>
      <trkpt lat="46.47166" lon="-1.57332">
        <ele>25</ele>
        <time>2020-03-10T23:44:59Z</time>
      </trkpt>
      <trkpt lat="46.47158" lon="-1.57388">
        <ele>26</ele>
        <time>2020-03-10T23:45:52Z</time>
      </trkpt>
      <trkpt lat="46.47158" lon="-1.57437">
        <ele>26</ele>
        <time>2020-03-10T23:46:37Z</time>
      </trkpt>
      <trkpt lat="46.47154" lon="-1.57444">
        <ele>26</ele>
        <time>2020-03-10T23:46:45Z</time>
      </trkpt>
      <trkpt lat="46.47151" lon="-1.57473">
        <ele>26</ele>
        <time>2020-03-10T23:47:12Z</time>
      </trkpt>
      <trkpt lat="46.47153" lon="-1.5748">
        <ele>27</ele>
        <time>2020-03-10T23:47:19Z</time>
      </trkpt>
      <trkpt lat="46.47155" lon="-1.57532">
        <ele>27</ele>
        <time>2020-03-10T23:48:07Z</time>
      </trkpt>
      <trkpt lat="46.47152" lon="-1.57542">
        <ele>27</ele>
        <time>2020-03-10T23:48:17Z</time>
      </trkpt>
      <trkpt lat="46.47152" lon="-1.57563">
        <ele>27</ele>
        <time>2020-03-10T23:48:36Z</time>
      </trkpt>
      <trkpt lat="46.47149" lon="-1.57567">
        <ele>27</ele>
        <time>2020-03-10T23:48:42Z</time>
      </trkpt>
      <trkpt lat="46.47145" lon="-1.57566">
        <ele>27</ele>
        <time>2020-03-10T23:48:47Z</time>
      </trkpt>
      <trkpt lat="46.47149" lon="-1.57565">
        <ele>27</ele>
        <time>2020-03-10T23:48:53Z</time>
      </trkpt>
      <trkpt lat="46.4715" lon="-1.57573">
        <ele>27</ele>
        <time>2020-03-10T23:49:00Z</time>
      </trkpt>
      <trkpt lat="46.47152" lon="-1.57572">
        <ele>27</ele>
        <time>2020-03-10T23:49:03Z</time>
      </trkpt>
      <trkpt lat="46.47152" lon="-1.5757">
        <ele>27</ele>
        <time>2020-03-10T23:49:05Z</time>
      </trkpt>
      <trkpt lat="46.47146" lon="-1.57643">
        <ele>27</ele>
        <time>2020-03-10T23:50:12Z</time>
      </trkpt>
      <trkpt lat="46.4714" lon="-1.57664">
        <ele>27</ele>
        <time>2020-03-10T23:50:33Z</time>
      </trkpt>
      <trkpt lat="46.47141" lon="-1.57679">
        <ele>27</ele>
        <time>2020-03-10T23:50:47Z</time>
      </trkpt>
      <trkpt lat="46.47138" lon="-1.57696">
        <ele>26</ele>
        <time>2020-03-10T23:51:03Z</time>
      </trkpt>
      <trkpt lat="46.47135" lon="-1.577">
        <ele>26</ele>
        <time>2020-03-10T23:51:09Z</time>
      </trkpt>
      <trkpt lat="46.47138" lon="-1.57699">
        <ele>26</ele>
        <time>2020-03-10T23:51:13Z</time>
      </trkpt>
      <trkpt lat="46.47139" lon="-1.57704">
        <ele>26</ele>
        <time>2020-03-10T23:51:17Z</time>
      </trkpt>
      <trkpt lat="46.47136" lon="-1.5772">
        <ele>26</ele>
        <time>2020-03-10T23:51:33Z</time>
      </trkpt>
      <trkpt lat="46.47136" lon="-1.57794">
        <ele>26</ele>
        <time>2020-03-10T23:52:41Z</time>
      </trkpt>
      <trkpt lat="46.47133" lon="-1.57819">
        <ele>26</ele>
        <time>2020-03-10T23:53:04Z</time>
      </trkpt>
      <trkpt lat="46.47135" lon="-1.57899">
        <ele>25</ele>
        <time>2020-03-10T23:54:18Z</time>
      </trkpt>
      <trkpt lat="46.47141" lon="-1.57938">
        <ele>25</ele>
        <time>2020-03-10T23:54:54Z</time>
      </trkpt>
      <trkpt lat="46.47139" lon="-1.57966">
        <ele>25</ele>
        <time>2020-03-10T23:55:20Z</time>
      </trkpt>
      <trkpt lat="46.47148" lon="-1.58021">
        <ele>25</ele>
        <time>2020-03-10T23:56:12Z</time>
      </trkpt>
      <trkpt lat="46.47149" lon="-1.58058">
        <ele>25</ele>
        <time>2020-03-10T23:56:46Z</time>
      </trkpt>
      <trkpt lat="46.47155" lon="-1.58088">
        <ele>25</ele>
        <time>2020-03-10T23:57:15Z</time>
      </trkpt>
      <trkpt lat="46.47156" lon="-1.58162">
        <ele>24</ele>
        <time>2020-03-10T23:58:23Z</time>
      </trkpt>
      <trkpt lat="46.47164" lon="-1.58217">
        <ele>25</ele>
        <time>2020-03-10T23:59:15Z</time>
      </trkpt>
      <trkpt lat="46.47164" lon="-1.5823">
        <ele>25</ele>
        <time>2020-03-10T23:59:27Z</time>
      </trkpt>
      <trkpt lat="46.47189" lon="-1.58268">
        <ele>25</ele>
        <time>2020-03-11T00:00:15Z</time>
      </trkpt>
      <trkpt lat="46.472" lon="-1.58273">
        <ele>24</ele>
        <time>2020-03-11T00:00:30Z</time>
      </trkpt>
      <trkpt lat="46.47211" lon="-1.58274">
        <ele>24</ele>
        <time>2020-03-11T00:00:45Z</time>
      </trkpt>
      <trkpt lat="46.47263" lon="-1.58274">
        <ele>24</ele>
        <time>2020-03-11T00:01:54Z</time>
      </trkpt>
      <trkpt lat="46.47287" lon="-1.58269">
        <ele>23</ele>
        <time>2020-03-11T00:02:27Z</time>
      </trkpt>
      <trkpt lat="46.47301" lon="-1.5827">
        <ele>22</ele>
        <time>2020-03-11T00:02:45Z</time>
      </trkpt>
      <trkpt lat="46.47329" lon="-1.58242">
        <ele>22</ele>
        <time>2020-03-11T00:03:31Z</time>
      </trkpt>
      <trkpt lat="46.47353" lon="-1.58231">
        <ele>21</ele>
        <time>2020-03-11T00:04:04Z</time>
      </trkpt>
      <trkpt lat="46.47371" lon="-1.58231">
        <ele>19</ele>
        <time>2020-03-11T00:04:28Z</time>
      </trkpt>
      <trkpt lat="46.47387" lon="-1.58237">
        <ele>18</ele>
        <time>2020-03-11T00:04:50Z</time>
      </trkpt>
      <trkpt lat="46.4743" lon="-1.58247">
        <ele>14</ele>
        <time>2020-03-11T00:05:49Z</time>
      </trkpt>
      <trkpt lat="46.47458" lon="-1.58246">
        <ele>13</ele>
        <time>2020-03-11T00:06:26Z</time>
      </trkpt>
      <trkpt lat="46.47475" lon="-1.58252">
        <ele>12</ele>
        <time>2020-03-11T00:06:49Z</time>
      </trkpt>
      <trkpt lat="46.47494" lon="-1.58264">
        <ele>11</ele>
        <time>2020-03-11T00:07:17Z</time>
      </trkpt>
      <trkpt lat="46.47504" lon="-1.58277">
        <ele>12</ele>
        <time>2020-03-11T00:07:35Z</time>
      </trkpt>
      <trkpt lat="46.47514" lon="-1.58296">
        <ele>12</ele>
        <time>2020-03-11T00:07:57Z</time>
      </trkpt>
      <trkpt lat="46.47525" lon="-1.58328">
        <ele>13</ele>
        <time>2020-03-11T00:08:30Z</time>
      </trkpt>
      <trkpt lat="46.47523" lon="-1.58346">
        <ele>14</ele>
        <time>2020-03-11T00:08:46Z</time>
      </trkpt>
      <trkpt lat="46.47513" lon="-1.58379">
        <ele>14</ele>
        <time>2020-03-11T00:09:20Z</time>
      </trkpt>
      <trkpt lat="46.47497" lon="-1.58399">
        <ele>14</ele>
        <time>2020-03-11T00:09:48Z</time>
      </trkpt>
      <trkpt lat="46.47476" lon="-1.58411">
        <ele>14</ele>
        <time>2020-03-11T00:10:18Z</time>
      </trkpt>
      <trkpt lat="46.47445" lon="-1.58446">
        <ele>13</ele>
        <time>2020-03-11T00:11:10Z</time>
      </trkpt>
      <trkpt lat="46.47436" lon="-1.58452">
        <ele>13</ele>
        <time>2020-03-11T00:11:23Z</time>
      </trkpt>
      <trkpt lat="46.47414" lon="-1.58486">
        <ele>12</ele>
        <time>2020-03-11T00:12:06Z</time>
      </trkpt>
      <trkpt lat="46.47409" lon="-1.58499">
        <ele>12</ele>
        <time>2020-03-11T00:12:20Z</time>
      </trkpt>
      <trkpt lat="46.47403" lon="-1.58528">
        <ele>12</ele>
        <time>2020-03-11T00:12:48Z</time>
      </trkpt>
      <trkpt lat="46.47403" lon="-1.58583">
        <ele>12</ele>
        <time>2020-03-11T00:13:38Z</time>
      </trkpt>
      <trkpt lat="46.47407" lon="-1.5861">
        <ele>11</ele>
        <time>2020-03-11T00:14:04Z</time>
      </trkpt>
      <trkpt lat="46.47413" lon="-1.58618">
        <ele>11</ele>
        <time>2020-03-11T00:14:15Z</time>
      </trkpt>
      <trkpt lat="46.47409" lon="-1.58621">
        <ele>11</ele>
        <time>2020-03-11T00:14:21Z</time>
      </trkpt>
      <trkpt lat="46.47408" lon="-1.5864">
        <ele>11</ele>
        <time>2020-03-11T00:14:38Z</time>
      </trkpt>
      <trkpt lat="46.47416" lon="-1.58662">
        <ele>10</ele>
        <time>2020-03-11T00:15:01Z</time>
      </trkpt>
      <trkpt lat="46.47426" lon="-1.58704">
        <ele>10</ele>
        <time>2020-03-11T00:15:42Z</time>
      </trkpt>
      <trkpt lat="46.4743" lon="-1.58743">
        <ele>10</ele>
        <time>2020-03-11T00:16:18Z</time>
      </trkpt>
      <trkpt lat="46.47444" lon="-1.58782">
        <ele>12</ele>
        <time>2020-03-11T00:16:59Z</time>
      </trkpt>
      <trkpt lat="46.47447" lon="-1.58803">
        <ele>13</ele>
        <time>2020-03-11T00:17:18Z</time>
      </trkpt>
      <trkpt lat="46.47462" lon="-1.58838">
        <ele>15</ele>
        <time>2020-03-11T00:17:56Z</time>
      </trkpt>
      <trkpt lat="46.47465" lon="-1.58854">
        <ele>16</ele>
        <time>2020-03-11T00:18:11Z</time>
      </trkpt>
      <trkpt lat="46.47464" lon="-1.58866">
        <ele>17</ele>
        <time>2020-03-11T00:18:22Z</time>
      </trkpt>
      <trkpt lat="46.47476" lon="-1.58943">
        <ele>21</ele>
        <time>2020-03-11T00:19:35Z</time>
      </trkpt>
      <trkpt lat="46.47473" lon="-1.58998">
        <ele>23</ele>
        <time>2020-03-11T00:20:26Z</time>
      </trkpt>
      <trkpt lat="46.47476" lon="-1.59014">
        <ele>23</ele>
        <time>2020-03-11T00:20:41Z</time>
      </trkpt>
      <trkpt lat="46.47477" lon="-1.59049">
        <ele>24</ele>
        <time>2020-03-11T00:21:13Z</time>
      </trkpt>
      <trkpt lat="46.47483" lon="-1.59086">
        <ele>25</ele>
        <time>2020-03-11T00:21:48Z</time>
      </trkpt>
      <trkpt lat="46.4748" lon="-1.59114">
        <ele>25</ele>
        <time>2020-03-11T00:22:14Z</time>
      </trkpt>
      <trkpt lat="46.47485" lon="-1.59133">
        <ele>26</ele>
        <time>2020-03-11T00:22:33Z</time>
      </trkpt>
      <trkpt lat="46.47493" lon="-1.59205">
        <ele>26</ele>
        <time>2020-03-11T00:23:40Z</time>
      </trkpt>
      <trkpt lat="46.47503" lon="-1.59236">
        <ele>26</ele>
        <time>2020-03-11T00:24:11Z</time>
      </trkpt>
      <trkpt lat="46.47505" lon="-1.5926">
        <ele>26</ele>
        <time>2020-03-11T00:24:34Z</time>
      </trkpt>
      <trkpt lat="46.47514" lon="-1.59287">
        <ele>26</ele>
        <time>2020-03-11T00:25:01Z</time>
      </trkpt>
      <trkpt lat="46.47521" lon="-1.59299">
        <ele>26</ele>
        <time>2020-03-11T00:25:16Z</time>
      </trkpt>
      <trkpt lat="46.47536" lon="-1.59351">
        <ele>26</ele>
        <time>2020-03-11T00:26:07Z</time>
      </trkpt>
      <trkpt lat="46.47542" lon="-1.59403">
        <ele>26</ele>
        <time>2020-03-11T00:26:56Z</time>
      </trkpt>
      <trkpt lat="46.47545" lon="-1.5945">
        <ele>26</ele>
        <time>2020-03-11T00:27:39Z</time>
      </trkpt>
      <trkpt lat="46.47544" lon="-1.59467">
        <ele>26</ele>
        <time>2020-03-11T00:27:55Z</time>
      </trkpt>
      <trkpt lat="46.47551" lon="-1.59512">
        <ele>26</ele>
        <time>2020-03-11T00:28:37Z</time>
      </trkpt>
      <trkpt lat="46.47552" lon="-1.5954">
        <ele>27</ele>
        <time>2020-03-11T00:29:03Z</time>
      </trkpt>
      <trkpt lat="46.47557" lon="-1.59566">
        <ele>27</ele>
        <time>2020-03-11T00:29:28Z</time>
      </trkpt>
      <trkpt lat="46.47557" lon="-1.59579">
        <ele>27</ele>
        <time>2020-03-11T00:29:40Z</time>
      </trkpt>
      <trkpt lat="46.47561" lon="-1.59596">
        <ele>27</ele>
        <time>2020-03-11T00:29:56Z</time>
      </trkpt>
      <trkpt lat="46.47565" lon="-1.59673">
        <ele>26</ele>
        <time>2020-03-11T00:31:07Z</time>
      </trkpt>
      <trkpt lat="46.47564" lon="-1.59709">
        <ele>27</ele>
        <time>2020-03-11T00:31:40Z</time>
      </trkpt>
      <trkpt lat="46.47569" lon="-1.59767">
        <ele>29</ele>
        <time>2020-03-11T00:32:34Z</time>
      </trkpt>
      <trkpt lat="46.47566" lon="-1.59779">
        <ele>29</ele>
        <time>2020-03-11T00:32:46Z</time>
      </trkpt>
      <trkpt lat="46.4756" lon="-1.5978">
        <ele>29</ele>
        <time>2020-03-11T00:32:54Z</time>
      </trkpt>
      <trkpt lat="46.47564" lon="-1.59781">
        <ele>29</ele>
        <time>2020-03-11T00:32:59Z</time>
      </trkpt>
      <trkpt lat="46.4756" lon="-1.5978">
        <ele>29</ele>
        <time>2020-03-11T00:33:05Z</time>
      </trkpt>
      <trkpt lat="46.47551" lon="-1.59771">
        <ele>28</ele>
        <time>2020-03-11T00:33:19Z</time>
      </trkpt>
      <trkpt lat="46.47557" lon="-1.59777">
        <ele>28</ele>
        <time>2020-03-11T00:33:29Z</time>
      </trkpt>
      <trkpt lat="46.47548" lon="-1.5981">
        <ele>28</ele>
        <time>2020-03-11T00:34:02Z</time>
      </trkpt>
      <trkpt lat="46.47524" lon="-1.59872">
        <ele>28</ele>
        <time>2020-03-11T00:35:07Z</time>
      </trkpt>
      <trkpt lat="46.47523" lon="-1.59882">
        <ele>28</ele>
        <time>2020-03-11T00:35:16Z</time>
      </trkpt>
      <trkpt lat="46.475" lon="-1.59949">
        <ele>28</ele>
        <time>2020-03-11T00:36:25Z</time>
      </trkpt>
      <trkpt lat="46.47483" lon="-1.59988">
        <ele>27</ele>
        <time>2020-03-11T00:37:07Z</time>
      </trkpt>
      <trkpt lat="46.47472" lon="-1.60023">
        <ele>27</ele>
        <time>2020-03-11T00:37:43Z</time>
      </trkpt>
      <trkpt lat="46.47472" lon="-1.60033">
        <ele>27</ele>
        <time>2020-03-11T00:37:52Z</time>
      </trkpt>
      <trkpt lat="46.47467" lon="-1.60048">
        <ele>27</ele>
        <time>2020-03-11T00:38:07Z</time>
      </trkpt>
      <trkpt lat="46.4745" lon="-1.60075">
        <ele>27</ele>
        <time>2020-03-11T00:38:41Z</time>
      </trkpt>
      <trkpt lat="46.47409" lon="-1.60104">
        <ele>27</ele>
        <time>2020-03-11T00:39:42Z</time>
      </trkpt>
      <trkpt lat="46.47354" lon="-1.60126">
        <ele>27</ele>
        <time>2020-03-11T00:40:58Z</time>
      </trkpt>
      <trkpt lat="46.4734" lon="-1.6014">
        <ele>27</ele>
        <time>2020-03-11T00:41:21Z</time>
      </trkpt>
      <trkpt lat="46.47328" lon="-1.60147">
        <ele>27</ele>
        <time>2020-03-11T00:41:38Z</time>
      </trkpt>
      <trkpt lat="46.47301" lon="-1.60157">
        <ele>26</ele>
        <time>2020-03-11T00:42:15Z</time>
      </trkpt>
      <trkpt lat="46.47285" lon="-1.60166">
        <ele>26</ele>
        <time>2020-03-11T00:42:38Z</time>
      </trkpt>
      <trkpt lat="46.47271" lon="-1.60178">
        <ele>25</ele>
        <time>2020-03-11T00:43:00Z</time>
      </trkpt>
      <trkpt lat="46.47245" lon="-1.60193">
        <ele>25</ele>
        <time>2020-03-11T00:43:37Z</time>
      </trkpt>
      <trkpt lat="46.47228" lon="-1.602">
        <ele>24</ele>
        <time>2020-03-11T00:44:01Z</time>
      </trkpt>
      <trkpt lat="46.47203" lon="-1.60217">
        <ele>24</ele>
        <time>2020-03-11T00:44:37Z</time>
      </trkpt>
      <trkpt lat="46.47178" lon="-1.60227">
        <ele>24</ele>
        <time>2020-03-11T00:45:12Z</time>
      </trkpt>
      <trkpt lat="46.4716" lon="-1.6024">
        <ele>24</ele>
        <time>2020-03-11T00:45:39Z</time>
      </trkpt>
      <trkpt lat="46.47153" lon="-1.60248">
        <ele>24</ele>
        <time>2020-03-11T00:45:51Z</time>
      </trkpt>
      <trkpt lat="46.47135" lon="-1.60283">
        <ele>22</ele>
        <time>2020-03-11T00:46:31Z</time>
      </trkpt>
      <trkpt lat="46.47123" lon="-1.60289">
        <ele>22</ele>
        <time>2020-03-11T00:46:48Z</time>
      </trkpt>
      <trkpt lat="46.47115" lon="-1.60289">
        <ele>22</ele>
        <time>2020-03-11T00:46:59Z</time>
      </trkpt>
      <trkpt lat="46.47102" lon="-1.60295">
        <ele>21</ele>
        <time>2020-03-11T00:47:17Z</time>
      </trkpt>
      <trkpt lat="46.47083" lon="-1.60299">
        <ele>21</ele>
        <time>2020-03-11T00:47:42Z</time>
      </trkpt>
      <trkpt lat="46.47066" lon="-1.60297">
        <ele>21</ele>
        <time>2020-03-11T00:48:05Z</time>
      </trkpt>
      <trkpt lat="46.47065" lon="-1.60303">
        <ele>21</ele>
        <time>2020-03-11T00:48:11Z</time>
      </trkpt>
      <trkpt lat="46.47051" lon="-1.60308">
        <ele>20</ele>
        <time>2020-03-11T00:48:30Z</time>
      </trkpt>
      <trkpt lat="46.47047" lon="-1.60307">
        <ele>20</ele>
        <time>2020-03-11T00:48:35Z</time>
      </trkpt>
      <trkpt lat="46.47045" lon="-1.6031">
        <ele>20</ele>
        <time>2020-03-11T00:48:39Z</time>
      </trkpt>
      <trkpt lat="46.47048" lon="-1.60308">
        <ele>20</ele>
        <time>2020-03-11T00:48:44Z</time>
      </trkpt>
      <trkpt lat="46.47043" lon="-1.60307">
        <ele>20</ele>
        <time>2020-03-11T00:48:50Z</time>
      </trkpt>
      <trkpt lat="46.47048" lon="-1.60342">
        <ele>20</ele>
        <time>2020-03-11T00:49:23Z</time>
      </trkpt>
      <trkpt lat="46.47053" lon="-1.60354">
        <ele>20</ele>
        <time>2020-03-11T00:49:36Z</time>
      </trkpt>
      <trkpt lat="46.47064" lon="-1.6037">
        <ele>20</ele>
        <time>2020-03-11T00:49:57Z</time>
      </trkpt>
      <trkpt lat="46.47073" lon="-1.60394">
        <ele>20</ele>
        <time>2020-03-11T00:50:22Z</time>
      </trkpt>
      <trkpt lat="46.47079" lon="-1.60402">
        <ele>20</ele>
        <time>2020-03-11T00:50:33Z</time>
      </trkpt>
      <trkpt lat="46.47089" lon="-1.60433">
        <ele>20</ele>
        <time>2020-03-11T00:51:04Z</time>
      </trkpt>
      <trkpt lat="46.47111" lon="-1.60471">
        <ele>19</ele>
        <time>2020-03-11T00:51:50Z</time>
      </trkpt>
      <trkpt lat="46.47112" lon="-1.60498">
        <ele>18</ele>
        <time>2020-03-11T00:52:15Z</time>
      </trkpt>
      <trkpt lat="46.47128" lon="-1.60548">
        <ele>16</ele>
        <time>2020-03-11T00:53:06Z</time>
      </trkpt>
      <trkpt lat="46.47139" lon="-1.60571">
        <ele>14</ele>
        <time>2020-03-11T00:53:31Z</time>
      </trkpt>
      <trkpt lat="46.47139" lon="-1.60586">
        <ele>14</ele>
        <time>2020-03-11T00:53:45Z</time>
      </trkpt>
      <trkpt lat="46.47165" lon="-1.60626">
        <ele>10</ele>
        <time>2020-03-11T00:54:36Z</time>
      </trkpt>
      <trkpt lat="46.47193" lon="-1.60649">
        <ele>9</ele>
        <time>2020-03-11T00:55:19Z</time>
      </trkpt>
      <trkpt lat="46.47201" lon="-1.60651">
        <ele>10</ele>
        <time>2020-03-11T00:55:29Z</time>
      </trkpt>
      <trkpt lat="46.47207" lon="-1.60656">
        <ele>10</ele>
        <time>2020-03-11T00:55:39Z</time>
      </trkpt>
      <trkpt lat="46.47213" lon="-1.60669">
        <ele>9</ele>
        <time>2020-03-11T00:55:53Z</time>
      </trkpt>
      <trkpt lat="46.47237" lon="-1.60695">
        <ele>11</ele>
        <time>2020-03-11T00:56:33Z</time>
      </trkpt>
      <trkpt lat="46.47246" lon="-1.60711">
        <ele>11</ele>
        <time>2020-03-11T00:56:52Z</time>
      </trkpt>
      <trkpt lat="46.47246" lon="-1.60738">
        <ele>12</ele>
        <time>2020-03-11T00:57:17Z</time>
      </trkpt>
      <trkpt lat="46.4724" lon="-1.60748">
        <ele>11</ele>
        <time>2020-03-11T00:57:29Z</time>
      </trkpt>
      <trkpt lat="46.47233" lon="-1.60771">
        <ele>12</ele>
        <time>2020-03-11T00:57:52Z</time>
      </trkpt>
      <trkpt lat="46.47225" lon="-1.60784">
        <ele>11</ele>
        <time>2020-03-11T00:58:08Z</time>
      </trkpt>
      <trkpt lat="46.47225" lon="-1.60788">
        <ele>12</ele>
        <time>2020-03-11T00:58:12Z</time>
      </trkpt>
      <trkpt lat="46.47221" lon="-1.60794">
        <ele>11</ele>
        <time>2020-03-11T00:58:19Z</time>
      </trkpt>
      <trkpt lat="46.47202" lon="-1.6081">
        <ele>11</ele>
        <time>2020-03-11T00:58:49Z</time>
      </trkpt>
      <trkpt lat="46.47186" lon="-1.60833">
        <ele>10</ele>
        <time>2020-03-11T00:59:19Z</time>
      </trkpt>
      <trkpt lat="46.4718" lon="-1.6085">
        <ele>11</ele>
        <time>2020-03-11T00:59:36Z</time>
      </trkpt>
      <trkpt lat="46.47177" lon="-1.60885">
        <ele>14</ele>
        <time>2020-03-11T01:00:09Z</time>
      </trkpt>
      <trkpt lat="46.47171" lon="-1.60898">
        <ele>15</ele>
        <time>2020-03-11T01:00:23Z</time>
      </trkpt>
      <trkpt lat="46.47165" lon="-1.60921">
        <ele>17</ele>
        <time>2020-03-11T01:00:46Z</time>
      </trkpt>
      <trkpt lat="46.47125" lon="-1.60929">
        <ele>15</ele>
        <time>2020-03-11T01:01:40Z</time>
      </trkpt>
      <trkpt lat="46.4711" lon="-1.60941">
        <ele>15</ele>
        <time>2020-03-11T01:02:02Z</time>
      </trkpt>
      <trkpt lat="46.47081" lon="-1.60956">
        <ele>14</ele>
        <time>2020-03-11T01:02:44Z</time>
      </trkpt>
      <trkpt lat="46.47075" lon="-1.60965">
        <ele>15</ele>
        <time>2020-03-11T01:02:55Z</time>
      </trkpt>
      <trkpt lat="46.47075" lon="-1.60973">
        <ele>15</ele>
        <time>2020-03-11T01:03:02Z</time>
      </trkpt>
      <trkpt lat="46.47072" lon="-1.60976">
        <ele>15</ele>
        <time>2020-03-11T01:03:07Z</time>
      </trkpt>
      <trkpt lat="46.47065" lon="-1.60974">
        <ele>15</ele>
        <time>2020-03-11T01:03:17Z</time>
      </trkpt>
      <trkpt lat="46.4705" lon="-1.60983">
        <ele>15</ele>
        <time>2020-03-11T01:03:38Z</time>
      </trkpt>
      <trkpt lat="46.47045" lon="-1.60983">
        <ele>15</ele>
        <time>2020-03-11T01:03:45Z</time>
      </trkpt>
      <trkpt lat="46.46993" lon="-1.61007">
        <ele>16</ele>
        <time>2020-03-11T01:04:58Z</time>
      </trkpt>
      <trkpt lat="46.4699" lon="-1.61006">
        <ele>16</ele>
        <time>2020-03-11T01:05:02Z</time>
      </trkpt>
      <trkpt lat="46.46962" lon="-1.61026">
        <ele>16</ele>
        <time>2020-03-11T01:05:44Z</time>
      </trkpt>
      <trkpt lat="46.46951" lon="-1.61036">
        <ele>16</ele>
        <time>2020-03-11T01:06:01Z</time>
      </trkpt>
      <trkpt lat="46.46941" lon="-1.61055">
        <ele>16</ele>
        <time>2020-03-11T01:06:23Z</time>
      </trkpt>
      <trkpt lat="46.46936" lon="-1.61075">
        <ele>17</ele>
        <time>2020-03-11T01:06:43Z</time>
      </trkpt>
      <trkpt lat="46.46936" lon="-1.61092">
        <ele>17</ele>
        <time>2020-03-11T01:06:58Z</time>
      </trkpt>
      <trkpt lat="46.46933" lon="-1.61104">
        <ele>16</ele>
        <time>2020-03-11T01:07:10Z</time>
      </trkpt>
      <trkpt lat="46.4693" lon="-1.61101">
        <ele>16</ele>
        <time>2020-03-11T01:07:15Z</time>
      </trkpt>
      <trkpt lat="46.46919" lon="-1.61127">
        <ele>15</ele>
        <time>2020-03-11T01:07:43Z</time>
      </trkpt>
      <trkpt lat="46.46914" lon="-1.61131">
        <ele>15</ele>
        <time>2020-03-11T01:07:50Z</time>
      </trkpt>
      <trkpt lat="46.46908" lon="-1.61132">
        <ele>15</ele>
        <time>2020-03-11T01:07:58Z</time>
      </trkpt>
      <trkpt lat="46.46904" lon="-1.61137">
        <ele>14</ele>
        <time>2020-03-11T01:08:06Z</time>
      </trkpt>
      <trkpt lat="46.46905" lon="-1.6114">
        <ele>14</ele>
        <time>2020-03-11T01:08:09Z</time>
      </trkpt>
    </trkseg>
  </trk>
</gpx>